createdAt,value
2019-03-24T00:01:41.010Z,92.25
2019-03-24T00:04:39.888Z,92.08
2019-03-24T00:07:44.538Z,91.97
2019-03-24T00:10:49.359Z,92.01
2019-03-24T00:13:53.967Z,92.02
2019-03-24T00:16:58.674Z,91.84
2019-03-24T00:20:03.354Z,91.79
2019-03-24T00:23:08.122Z,91.68
2019-03-24T00:26:14.574Z,91.64
2019-03-24T00:29:20.569Z,91.76
2019-03-24T00:32:26.157Z,91.59
2019-03-24T00:35:31.363Z,91.59
2019-03-24T00:38:36.179Z,91.48
2019-03-24T00:41:40.966Z,91.62
2019-03-24T00:44:45.626Z,91.62
2019-03-24T00:47:50.632Z,91.72
2019-03-24T00:50:55.386Z,91.80
2019-03-24T00:54:00.070Z,91.83
2019-03-24T00:57:04.808Z,91.78
2019-03-24T01:00:10.604Z,91.90
2019-03-24T01:03:16.197Z,91.85
2019-03-24T01:06:21.184Z,92.00
2019-03-24T01:09:25.958Z,92.13
2019-03-24T01:12:30.802Z,92.31
2019-03-24T01:15:35.838Z,92.18
2019-03-24T01:18:40.706Z,92.26
2019-03-24T01:21:45.516Z,92.39
2019-03-24T01:24:50.417Z,92.62
2019-03-24T01:27:58.158Z,92.70
2019-03-24T01:31:03.288Z,92.81
2019-03-24T01:34:08.542Z,92.68
2019-03-24T01:37:14.548Z,92.77
2019-03-24T01:40:20.080Z,92.64
2019-03-24T01:43:25.114Z,92.81
2019-03-24T01:46:30.673Z,92.99
2019-03-24T01:49:36.733Z,92.89
2019-03-24T01:52:42.563Z,92.90
2019-03-24T01:55:47.742Z,92.80
2019-03-24T01:58:52.804Z,93.15
2019-03-24T02:02:01.396Z,93.33
2019-03-24T02:05:09.155Z,93.75
2019-03-24T02:08:15.842Z,94.33
2019-03-24T02:11:21.098Z,93.79
2019-03-24T02:14:26.115Z,93.13
2019-03-24T02:17:30.924Z,93.58
2019-03-24T02:20:39.211Z,93.65
2019-03-24T02:23:44.686Z,93.75
2019-03-24T02:26:50.579Z,93.93
2019-03-24T02:29:57.931Z,94.07
2019-03-24T02:33:06.336Z,94.13
2019-03-24T02:36:13.255Z,94.11
2019-03-24T02:39:21.176Z,94.08
2019-03-24T02:42:26.590Z,94.09
2019-03-24T02:45:32.511Z,94.17
2019-03-24T02:48:38.974Z,94.22
2019-03-24T02:51:44.474Z,94.23
2019-03-24T02:54:49.927Z,94.08
2019-03-24T02:57:55.380Z,93.91
2019-03-24T03:01:02.510Z,93.98
2019-03-24T03:04:39.494Z,94.23
2019-03-24T03:08:13.472Z,94.21
2019-03-24T03:11:21.654Z,94.29
2019-03-24T03:14:27.133Z,94.35
2019-03-24T03:17:32.653Z,94.47
2019-03-24T03:20:39.014Z,94.62
2019-03-24T03:23:43.898Z,94.59
2019-03-24T03:26:48.784Z,94.59
2019-03-24T03:29:53.436Z,94.67
2019-03-24T03:32:59.127Z,94.62
2019-03-24T03:36:06.128Z,94.62
2019-03-24T03:39:12.177Z,94.65
2019-03-24T03:42:18.006Z,94.63
2019-03-24T03:45:34.502Z,94.67
2019-03-24T03:48:46.470Z,94.66
2019-03-24T03:51:53.900Z,94.59
2019-03-24T03:54:59.420Z,94.57
2019-03-24T03:58:07.659Z,94.58
2019-03-24T04:01:13.641Z,94.62
2019-03-24T04:04:23.134Z,94.72
2019-03-24T04:07:33.919Z,94.85
2019-03-24T04:10:41.106Z,94.90
2019-03-24T04:13:48.215Z,94.94
2019-03-24T04:17:07.109Z,94.93
2019-03-24T04:20:06.495Z,94.94
2019-03-24T04:23:15.136Z,94.97
2019-03-24T04:26:24.554Z,94.99
2019-03-24T04:29:30.841Z,95.48
2019-03-24T04:32:38.890Z,95.53
2019-03-24T04:35:47.333Z,95.78
2019-03-24T04:38:57.975Z,95.99
2019-03-24T04:42:04.067Z,96.16
2019-03-24T04:45:11.731Z,96.20
2019-03-24T04:48:19.986Z,95.83
2019-03-24T04:51:26.321Z,95.95
2019-03-24T04:54:37.738Z,96.12
2019-03-24T05:15:48.643Z,95.97
2019-03-24T05:19:25.590Z,95.92
2019-03-24T05:28:13.069Z,95.94
2019-03-24T05:31:57.848Z,96.10
2019-03-24T05:48:02.257Z,95.85
2019-03-24T05:51:35.311Z,96.10
2019-03-24T05:55:54.147Z,96.26
2019-03-24T06:16:28.143Z,96.41
2019-03-24T06:29:22.175Z,96.39
2019-03-24T06:42:18.180Z,96.49
2019-03-24T06:46:08.414Z,96.49
2019-03-24T06:49:44.643Z,96.49
2019-03-24T06:53:28.784Z,96.44
2019-03-24T07:00:54.547Z,96.17
2019-03-24T07:04:19.223Z,96.46
2019-03-24T07:12:58.514Z,96.48
2019-03-24T07:16:24.170Z,96.57
2019-03-24T07:19:28.527Z,96.50
2019-03-24T07:22:32.997Z,96.58
2019-03-24T07:25:37.432Z,96.58
2019-03-24T07:28:45.931Z,96.58
2019-03-24T07:31:50.420Z,96.68
2019-03-24T07:34:54.784Z,96.72
2019-03-24T07:37:59.173Z,96.76
2019-03-24T07:41:03.723Z,96.72
2019-03-24T07:44:08.102Z,96.26
2019-03-24T07:47:15.743Z,94.74
2019-03-24T07:50:20.107Z,93.59
2019-03-24T07:53:24.568Z,93.02
2019-03-24T07:56:28.926Z,94.24
2019-03-24T07:59:33.372Z,94.55
2019-03-24T08:02:37.710Z,94.81
2019-03-24T08:05:42.066Z,94.75
2019-03-24T08:08:46.462Z,94.41
2019-03-24T08:11:50.929Z,94.95
2019-03-24T08:14:55.316Z,94.75
2019-03-24T08:17:59.683Z,94.75
2019-03-24T08:21:04.139Z,94.66
2019-03-24T08:24:08.499Z,94.47
2019-03-24T08:27:12.869Z,94.57
2019-03-24T08:30:24.385Z,94.79
2019-03-24T08:33:28.760Z,94.81
2019-03-24T08:36:33.131Z,94.41
2019-03-24T08:39:37.589Z,89.75
2019-03-24T08:42:42.139Z,90.08
2019-03-24T08:45:46.500Z,90.38
2019-03-24T08:48:50.849Z,90.71
2019-03-24T08:51:55.186Z,89.15
2019-03-24T08:54:59.923Z,89.72
2019-03-24T08:58:04.584Z,90.90
2019-03-24T09:01:08.951Z,87.55
2019-03-24T09:04:13.358Z,86.03
2019-03-24T09:07:17.736Z,88.02
2019-03-24T09:10:22.272Z,87.83
2019-03-24T09:13:26.690Z,87.22
2019-03-24T09:16:31.062Z,86.57
2019-03-24T09:19:35.431Z,86.61
2019-03-24T09:22:39.802Z,85.94
2019-03-24T09:25:44.428Z,86.42
2019-03-24T09:28:48.800Z,85.00
2019-03-24T09:31:53.280Z,84.65
2019-03-24T09:34:57.636Z,83.35
2019-03-24T09:38:02.087Z,80.91
2019-03-24T09:41:06.522Z,78.62
2019-03-24T09:44:10.908Z,81.05
2019-03-24T09:47:15.268Z,79.54
2019-03-24T09:50:19.720Z,78.27
2019-03-24T09:53:24.198Z,78.03
2019-03-24T09:56:28.582Z,76.54
2019-03-24T09:59:32.967Z,75.52
2019-03-24T10:02:37.306Z,76.56
2019-03-24T10:05:41.668Z,74.20
2019-03-24T10:08:47.253Z,75.23
2019-03-24T10:11:52.050Z,74.23
2019-03-24T10:14:56.415Z,73.31
2019-03-24T10:18:00.795Z,73.03
2019-03-24T10:21:05.170Z,72.55
2019-03-24T10:24:09.553Z,70.81
2019-03-24T10:27:13.931Z,71.57
2019-03-24T10:30:18.422Z,71.99
2019-03-24T10:33:22.801Z,72.47
2019-03-24T10:36:27.168Z,69.47
2019-03-24T10:39:32.060Z,68.48
2019-03-24T10:42:36.635Z,69.80
2019-03-24T10:45:41.025Z,68.67
2019-03-24T10:48:45.453Z,65.96
2019-03-24T10:51:49.818Z,64.58
2019-03-24T10:54:54.209Z,64.00
2019-03-24T10:57:58.721Z,65.79
2019-03-24T11:01:03.200Z,66.63
2019-03-24T11:04:07.677Z,67.11
2019-03-24T11:07:12.065Z,68.33
2019-03-24T11:10:16.496Z,68.37
2019-03-24T11:13:20.836Z,67.61
2019-03-24T11:16:25.363Z,65.44
2019-03-24T11:19:35.620Z,65.34
2019-03-24T11:22:35.860Z,66.39
2019-03-24T11:25:40.287Z,67.22
2019-03-24T11:28:44.648Z,62.70
2019-03-24T11:31:49.021Z,59.59
2019-03-24T11:34:53.397Z,58.01
2019-03-24T11:37:57.772Z,59.78
2019-03-24T11:41:02.241Z,60.57
2019-03-24T11:44:06.748Z,62.12
2019-03-24T11:47:11.117Z,62.87
2019-03-24T11:50:15.758Z,60.22
2019-03-24T11:53:20.121Z,60.92
2019-03-24T11:56:24.493Z,58.31
2019-03-24T11:59:28.933Z,62.26
2019-03-24T12:02:33.289Z,60.74
2019-03-24T12:05:37.889Z,59.56
2019-03-24T12:08:42.428Z,61.45
2019-03-24T12:11:46.791Z,57.97
2019-03-24T12:14:51.142Z,57.76
2019-03-24T12:17:55.580Z,54.32
2019-03-24T12:21:00.034Z,54.32
2019-03-24T12:24:04.505Z,54.87
2019-03-24T12:27:08.872Z,55.49
2019-03-24T12:30:13.609Z,56.27
2019-03-24T12:33:17.979Z,59.14
2019-03-24T12:36:22.344Z,57.25
2019-03-24T12:39:26.698Z,57.36
2019-03-24T12:42:31.094Z,59.19
2019-03-24T12:45:35.443Z,58.97
2019-03-24T12:48:39.819Z,60.72
2019-03-24T12:51:44.208Z,60.99
2019-03-24T12:54:48.640Z,60.31
2019-03-24T12:57:53.006Z,61.15
2019-03-24T13:00:57.366Z,62.83
2019-03-24T13:04:01.743Z,60.15
2019-03-24T13:07:06.239Z,59.72
2019-03-24T13:10:11.815Z,59.78
2019-03-24T13:13:16.366Z,61.55
2019-03-24T13:16:20.782Z,59.82
2019-03-24T13:19:25.251Z,61.25
2019-03-24T13:22:29.634Z,61.59
2019-03-24T13:25:36.261Z,61.39
2019-03-24T13:28:40.255Z,62.99
2019-03-24T13:31:44.613Z,60.92
2019-03-24T13:34:48.968Z,61.12
2019-03-24T13:37:53.356Z,59.75
2019-03-24T13:40:57.718Z,59.76
2019-03-24T13:44:02.180Z,61.62
2019-03-24T13:47:06.709Z,59.22
2019-03-24T13:50:11.304Z,59.24
2019-03-24T13:53:15.774Z,60.33
2019-03-24T13:56:20.232Z,59.63
2019-03-24T13:59:24.600Z,60.92
2019-03-24T14:02:28.955Z,61.81
2019-03-24T14:05:33.404Z,62.97
2019-03-24T14:08:37.766Z,62.76
2019-03-24T14:11:42.237Z,61.34
2019-03-24T14:14:46.635Z,63.67
2019-03-24T14:17:51.066Z,63.57
2019-03-24T14:20:55.452Z,64.04
2019-03-24T14:23:59.909Z,64.99
2019-03-24T14:27:04.457Z,64.87
2019-03-24T14:30:10.127Z,65.44
2019-03-24T14:33:15.105Z,65.00
2019-03-24T14:36:19.473Z,65.21
2019-03-24T14:39:23.963Z,68.21
2019-03-24T14:42:28.447Z,67.96
2019-03-24T14:45:32.881Z,66.09
2019-03-24T14:48:37.280Z,68.21
2019-03-24T14:51:41.682Z,69.33
2019-03-24T14:54:46.053Z,67.39
2019-03-24T14:57:50.599Z,68.04
2019-03-24T15:00:54.980Z,69.54
2019-03-24T15:03:59.389Z,71.00
2019-03-24T15:07:03.727Z,69.83
2019-03-24T15:10:08.934Z,69.47
2019-03-24T15:13:13.382Z,69.58
2019-03-24T15:16:17.753Z,70.05
2019-03-24T15:19:22.138Z,69.64
2019-03-24T15:22:26.568Z,69.34
2019-03-24T15:25:31.030Z,68.76
2019-03-24T15:28:35.514Z,67.94
2019-03-24T15:31:39.899Z,67.86
2019-03-24T15:34:44.299Z,67.93
2019-03-24T15:37:48.610Z,69.93
2019-03-24T15:40:53.076Z,70.49
2019-03-24T15:43:57.505Z,69.79
2019-03-24T15:47:01.885Z,68.80
2019-03-24T15:50:06.805Z,66.87
2019-03-24T15:53:11.290Z,68.07
2019-03-24T15:56:15.681Z,68.62
2019-03-24T15:59:20.049Z,69.67
2019-03-24T16:02:24.491Z,71.11
2019-03-24T16:05:28.888Z,71.41
2019-03-24T16:08:33.330Z,70.20
2019-03-24T16:11:37.833Z,70.45
2019-03-24T16:14:42.209Z,70.76
2019-03-24T16:17:46.577Z,70.33
2019-03-24T16:20:50.933Z,71.15
2019-03-24T16:23:55.311Z,72.42
2019-03-24T16:26:59.827Z,73.29
2019-03-24T16:30:04.693Z,74.31
2019-03-24T16:33:09.260Z,74.74
2019-03-24T16:36:13.699Z,74.97
2019-03-24T16:39:18.072Z,73.51
2019-03-24T16:42:22.452Z,73.12
2019-03-24T16:45:26.788Z,73.09
2019-03-24T16:48:36.734Z,74.08
2019-03-24T16:51:38.789Z,74.22
2019-03-24T16:54:43.494Z,75.03
2019-03-24T16:57:49.770Z,75.28
2019-03-24T17:00:54.036Z,76.34
2019-03-24T17:03:58.400Z,77.09
2019-03-24T17:07:02.850Z,76.89
2019-03-24T17:10:07.703Z,76.76
2019-03-24T17:13:12.083Z,78.00
2019-03-24T17:16:16.447Z,78.66
2019-03-24T17:19:20.880Z,78.71
2019-03-24T17:22:25.257Z,79.71
2019-03-24T17:25:29.681Z,79.76
2019-03-24T17:28:34.032Z,79.97
2019-03-24T17:31:46.809Z,80.46
2019-03-24T17:34:51.249Z,81.57
2019-03-24T17:37:55.688Z,81.97
2019-03-24T17:41:00.589Z,81.34
2019-03-24T17:44:05.063Z,81.63
2019-03-24T17:47:09.406Z,82.23
2019-03-24T17:50:14.208Z,81.57
2019-03-24T17:53:18.588Z,81.40
2019-03-24T17:56:22.974Z,81.57
2019-03-24T17:59:27.316Z,82.36
2019-03-24T18:02:31.691Z,81.98
2019-03-24T18:05:36.138Z,82.63
2019-03-24T18:08:42.852Z,82.73
2019-03-24T18:11:48.863Z,82.65
2019-03-24T18:14:57.125Z,82.48
2019-03-24T18:18:18.285Z,82.80
2019-03-24T18:21:25.901Z,83.52
2019-03-24T18:24:31.608Z,83.86
2019-03-24T18:27:36.328Z,82.76
2019-03-24T18:30:42.200Z,83.20
2019-03-24T18:33:48.771Z,83.39
2019-03-24T18:36:57.085Z,83.01
2019-03-24T18:40:08.850Z,83.46
2019-03-24T19:01:49.081Z,84.23
2019-03-24T19:13:45.645Z,83.57
2019-03-24T19:35:17.156Z,83.96
2019-03-24T19:43:22.005Z,83.42
2019-03-24T22:54:17.377Z,83.43
2019-03-24T22:58:32.839Z,85.87
2019-03-24T23:06:11.754Z,85.79
2019-03-24T23:09:37.260Z,86.19
2019-03-24T23:12:45.263Z,88.57
2019-03-24T23:15:50.291Z,89.20
2019-03-24T23:18:54.838Z,90.16
2019-03-24T23:21:59.209Z,90.54
2019-03-24T23:25:03.791Z,90.61
2019-03-24T23:28:08.348Z,91.39
2019-03-24T23:31:12.729Z,90.23
2019-03-24T23:34:17.189Z,91.31
2019-03-24T23:37:22.003Z,91.92
2019-03-24T23:40:26.547Z,92.79
2019-03-24T23:43:31.069Z,92.36
2019-03-24T23:46:35.456Z,93.66
2019-03-24T23:49:39.824Z,92.56
2019-03-24T23:52:44.198Z,93.67
2019-03-24T23:55:48.681Z,92.96
2019-03-24T23:58:53.146Z,93.43
